createdAt,value
2018-12-12T00:00:40.928Z,13.60
2018-12-12T00:03:20.136Z,12.00
2018-12-12T00:06:00.205Z,13.20
2018-12-12T00:08:38.217Z,12.43
2018-12-12T00:11:15.391Z,15.13
2018-12-12T00:13:51.519Z,11.93
2018-12-12T00:16:28.587Z,12.87
2018-12-12T00:19:05.377Z,12.03
2018-12-12T00:21:42.561Z,13.83
2018-12-12T00:24:19.489Z,13.03
2018-12-12T00:26:56.390Z,12.70
2018-12-12T00:29:33.695Z,16.67
2018-12-12T00:32:10.263Z,14.83
2018-12-12T00:34:47.037Z,14.30
2018-12-12T00:37:24.672Z,15.83
2018-12-12T00:40:01.621Z,14.03
2018-12-12T00:42:38.903Z,14.30
2018-12-12T00:45:16.681Z,17.77
2018-12-12T00:47:54.444Z,17.83
2018-12-12T00:50:32.221Z,15.83
2018-12-12T00:53:08.196Z,19.37
2018-12-12T00:55:44.562Z,14.30
2018-12-12T00:58:21.971Z,16.73
2018-12-12T01:00:58.115Z,16.57
2018-12-12T01:03:34.414Z,14.97
2018-12-12T01:06:11.099Z,15.30
2018-12-12T01:08:48.872Z,14.97
2018-12-12T01:11:31.178Z,13.03
2018-12-12T01:14:07.270Z,16.77
2018-12-12T01:16:43.273Z,15.23
2018-12-12T01:19:19.080Z,15.90
2018-12-12T01:21:55.169Z,14.03
2018-12-12T01:24:30.848Z,17.53
2018-12-12T01:27:06.949Z,17.40
2018-12-12T01:29:42.822Z,15.13
2018-12-12T01:32:18.847Z,17.00
2018-12-12T01:34:54.480Z,18.93
2018-12-12T01:37:30.329Z,15.87
2018-12-12T01:40:06.517Z,16.13
2018-12-12T01:42:42.160Z,14.57
2018-12-12T01:45:18.041Z,16.23
2018-12-12T01:47:53.933Z,17.40
2018-12-12T01:50:29.677Z,16.70
2018-12-12T01:53:05.742Z,16.20
2018-12-12T01:55:41.417Z,15.13
2018-12-12T01:58:17.387Z,18.47
2018-12-12T02:00:53.282Z,18.07
2018-12-12T02:03:29.177Z,18.07
2018-12-12T02:06:05.062Z,19.00
2018-12-12T02:08:41.009Z,16.73
2018-12-12T02:11:17.083Z,18.57
2018-12-12T02:13:52.936Z,16.97
2018-12-12T02:16:29.119Z,19.37
2018-12-12T02:19:05.134Z,20.30
2018-12-12T02:21:40.957Z,18.90
2018-12-12T02:24:17.119Z,18.07
2018-12-12T02:26:52.682Z,19.20
2018-12-12T02:29:28.678Z,19.73
2018-12-12T02:32:04.771Z,19.53
2018-12-12T02:34:40.634Z,21.43
2018-12-12T02:37:16.511Z,20.80
2018-12-12T02:39:53.527Z,18.50
2018-12-12T02:42:29.235Z,17.87
2018-12-12T02:45:05.399Z,17.17
2018-12-12T02:47:40.959Z,17.67
2018-12-12T02:50:16.746Z,18.40
2018-12-12T02:52:52.844Z,17.80
2018-12-12T02:55:28.759Z,17.97
2018-12-12T02:58:05.278Z,18.97
2018-12-12T03:00:41.430Z,15.20
2018-12-12T03:03:17.229Z,14.47
2018-12-12T03:05:53.766Z,12.70
2018-12-12T03:08:29.810Z,8.40
2018-12-12T03:11:05.588Z,7.53
2018-12-12T03:13:41.501Z,8.13
2018-12-12T03:16:17.266Z,8.07
2018-12-12T03:18:53.467Z,9.77
2018-12-12T03:21:29.451Z,8.10
2018-12-12T03:24:05.935Z,8.20
2018-12-12T03:26:41.799Z,9.33
2018-12-12T03:29:17.733Z,9.47
2018-12-12T03:31:53.462Z,11.20
2018-12-12T03:34:29.423Z,11.40
2018-12-12T03:37:06.210Z,13.87
2018-12-12T03:39:42.033Z,14.23
2018-12-12T03:42:18.394Z,13.20
2018-12-12T03:44:54.798Z,14.10
2018-12-12T03:47:30.637Z,14.57
2018-12-12T03:50:06.516Z,12.73
2018-12-12T03:52:42.415Z,13.33
2018-12-12T03:55:18.136Z,13.20
2018-12-12T03:57:54.224Z,15.83
2018-12-12T04:00:30.089Z,14.40
2018-12-12T04:03:06.142Z,17.00
2018-12-12T04:05:42.229Z,17.20
2018-12-12T04:08:17.958Z,17.60
2018-12-12T04:10:53.841Z,18.93
2018-12-12T04:13:29.811Z,18.43
2018-12-12T04:16:05.731Z,20.87
2018-12-12T04:18:41.407Z,21.03
2018-12-12T04:21:17.362Z,21.90
2018-12-12T04:23:53.251Z,18.97
2018-12-12T04:26:29.286Z,15.30
2018-12-12T04:29:05.331Z,16.50
2018-12-12T04:31:41.379Z,21.97
2018-12-12T04:34:18.367Z,22.53
2018-12-12T04:36:54.324Z,26.93
2018-12-12T04:39:30.357Z,26.73
2018-12-12T04:42:06.164Z,32.70
2018-12-12T04:44:42.118Z,32.30
2018-12-12T04:47:18.330Z,34.37
2018-12-12T04:49:54.078Z,32.57
2018-12-12T04:52:29.894Z,43.17
2018-12-12T04:55:05.940Z,45.37
2018-12-12T04:57:41.946Z,48.00
2018-12-12T05:00:17.760Z,48.23
2018-12-12T05:02:53.922Z,48.27
2018-12-12T05:05:30.470Z,47.60
2018-12-12T05:08:06.510Z,56.80
2018-12-12T05:10:42.407Z,53.70
2018-12-12T05:13:18.383Z,57.23
2018-12-12T05:15:54.081Z,62.30
2018-12-12T05:18:30.120Z,64.73
2018-12-12T05:21:05.755Z,64.50
2018-12-12T05:23:41.551Z,67.90
2018-12-12T05:26:17.213Z,65.47
2018-12-12T05:28:53.114Z,58.80
2018-12-12T05:31:29.072Z,63.77
2018-12-12T05:34:05.124Z,64.93
2018-12-12T05:36:40.903Z,65.27
2018-12-12T05:39:16.850Z,64.97
2018-12-12T05:41:52.660Z,56.50
2018-12-12T05:44:28.834Z,69.23
2018-12-12T05:47:05.924Z,62.87
2018-12-12T05:49:41.757Z,62.70
2018-12-12T05:52:17.657Z,58.83
2018-12-12T05:54:54.001Z,56.57
2018-12-12T05:57:30.152Z,62.17
2018-12-12T06:00:09.359Z,62.07
2018-12-12T06:02:45.452Z,60.23
2018-12-12T06:05:21.976Z,59.70
2018-12-12T06:07:58.007Z,55.77
2018-12-12T06:10:33.661Z,64.47
2018-12-12T06:13:09.663Z,62.27
2018-12-12T06:15:45.357Z,59.27
2018-12-12T06:18:21.739Z,61.53
2018-12-12T06:20:58.335Z,63.87
2018-12-12T06:23:34.128Z,64.10
2018-12-12T06:26:09.843Z,55.27
2018-12-12T06:28:46.258Z,62.43
2018-12-12T06:31:22.429Z,60.53
2018-12-12T06:33:58.116Z,65.43
2018-12-12T06:36:34.073Z,63.77
2018-12-12T06:39:10.013Z,57.27
2018-12-12T06:41:47.536Z,66.83
2018-12-12T06:44:23.863Z,63.87
2018-12-12T06:46:59.894Z,63.37
2018-12-12T06:49:35.901Z,62.33
2018-12-12T06:52:11.784Z,65.47
2018-12-12T06:54:47.333Z,69.87
2018-12-12T06:57:23.488Z,67.93
2018-12-12T06:59:59.107Z,67.93
2018-12-12T07:02:35.088Z,66.83
2018-12-12T07:05:11.104Z,63.07
2018-12-12T07:07:46.871Z,66.70
2018-12-12T07:10:23.350Z,67.77
2018-12-12T07:12:59.740Z,69.67
2018-12-12T07:15:35.682Z,75.00
2018-12-12T07:18:11.569Z,75.13
2018-12-12T07:20:47.182Z,84.50
2018-12-12T07:23:23.728Z,68.83
2018-12-12T07:25:59.771Z,92.60
2018-12-12T07:28:35.847Z,82.33
2018-12-12T07:31:11.791Z,67.50
2018-12-12T07:33:47.767Z,72.33
2018-12-12T07:36:23.490Z,73.57
2018-12-12T07:39:00.419Z,76.07
2018-12-12T07:41:36.649Z,78.77
2018-12-12T07:44:14.657Z,74.33
2018-12-12T07:46:56.352Z,74.37
2018-12-12T07:49:35.193Z,72.53
2018-12-12T07:52:30.847Z,75.53
2018-12-12T07:55:07.693Z,77.70
2018-12-12T07:57:43.952Z,78.90
2018-12-12T08:00:20.206Z,81.93
2018-12-12T08:02:55.940Z,80.20
2018-12-12T08:05:31.772Z,70.63
2018-12-12T08:08:07.490Z,81.47
2018-12-12T08:10:44.118Z,75.13
2018-12-12T08:13:20.030Z,77.27
2018-12-12T08:15:58.375Z,73.97
2018-12-12T08:18:34.430Z,74.33
2018-12-12T08:21:10.458Z,80.60
2018-12-12T08:23:46.443Z,74.57
2018-12-12T08:26:22.885Z,75.17
2018-12-12T08:28:59.328Z,74.90
2018-12-12T08:31:35.001Z,74.40
2018-12-12T08:34:11.210Z,78.00
2018-12-12T08:36:46.926Z,73.27
2018-12-12T08:39:23.036Z,71.43
2018-12-12T08:41:59.485Z,67.93
2018-12-12T08:44:35.529Z,73.40
2018-12-12T08:47:11.335Z,67.77
2018-12-12T08:49:47.330Z,79.27
2018-12-12T08:52:23.056Z,76.07
2018-12-12T08:54:59.404Z,73.67
2018-12-12T08:57:35.624Z,72.90
2018-12-12T09:00:12.129Z,72.90
2018-12-12T09:02:49.701Z,79.03
2018-12-12T09:05:25.483Z,84.83
2018-12-12T09:08:01.687Z,77.33
2018-12-12T09:10:38.332Z,81.17
2018-12-12T09:13:15.409Z,80.00
2018-12-12T09:15:51.931Z,80.80
2018-12-12T09:18:29.591Z,74.43
2018-12-12T09:21:05.748Z,82.63
2018-12-12T09:23:42.765Z,80.27
2018-12-12T09:26:18.436Z,71.90
2018-12-12T09:28:54.412Z,78.50
2018-12-12T09:31:32.349Z,74.37
2018-12-12T09:34:10.477Z,73.83
2018-12-12T09:36:46.719Z,82.47
2018-12-12T09:39:23.116Z,82.13
2018-12-12T09:41:59.323Z,80.07
2018-12-12T09:44:35.317Z,78.17
2018-12-12T09:47:11.923Z,67.47
2018-12-12T09:49:48.825Z,72.17
2018-12-12T09:52:26.789Z,76.93
2018-12-12T09:55:05.413Z,70.07
2018-12-12T09:57:41.528Z,79.20
2018-12-12T10:00:17.184Z,76.60
2018-12-12T10:02:53.160Z,81.37
2018-12-12T10:05:28.831Z,75.77
2018-12-12T10:08:04.608Z,77.03
2018-12-12T10:10:40.839Z,72.23
2018-12-12T10:13:16.482Z,69.07
2018-12-12T10:15:52.748Z,67.73
2018-12-12T10:18:28.791Z,63.27
2018-12-12T10:21:04.464Z,72.30
2018-12-12T10:23:40.374Z,66.13
2018-12-12T10:26:16.011Z,68.37
2018-12-12T10:28:51.793Z,64.13
2018-12-12T10:31:27.699Z,64.57
2018-12-12T10:34:03.956Z,56.53
2018-12-12T10:36:40.244Z,59.50
2018-12-12T10:39:16.020Z,61.90
2018-12-12T10:41:52.119Z,61.43
2018-12-12T10:44:27.792Z,64.07
2018-12-12T10:47:03.811Z,61.57
2018-12-12T10:49:40.150Z,60.70
2018-12-12T10:52:30.759Z,59.23
2018-12-12T10:55:07.369Z,59.47
2018-12-12T10:57:43.971Z,56.87
2018-12-12T11:00:19.762Z,64.03
2018-12-12T11:03:02.731Z,68.10
2018-12-12T11:05:38.757Z,53.57
2018-12-12T11:08:15.333Z,60.63
2018-12-12T11:10:52.728Z,59.07
2018-12-12T11:13:29.312Z,59.37
2018-12-12T11:16:06.306Z,63.67
2018-12-12T11:18:47.694Z,61.77
2018-12-12T11:21:26.292Z,57.50
2018-12-12T11:24:02.726Z,59.63
2018-12-12T11:26:39.072Z,67.50
2018-12-12T11:29:15.032Z,58.20
2018-12-12T11:31:52.043Z,65.30
2018-12-12T11:34:27.760Z,64.87
2018-12-12T11:37:04.490Z,64.20
2018-12-12T11:39:40.861Z,60.50
2018-12-12T11:42:17.607Z,58.73
2018-12-12T11:44:53.858Z,58.83
2018-12-12T11:47:30.719Z,63.47
2018-12-12T11:50:07.592Z,50.97
2018-12-12T11:52:43.429Z,55.90
2018-12-12T11:55:19.346Z,59.07
2018-12-12T11:57:55.132Z,59.83
2018-12-12T12:00:31.318Z,54.60
2018-12-12T12:03:07.742Z,54.57
2018-12-12T12:05:43.774Z,51.63
2018-12-12T12:08:20.317Z,56.53
2018-12-12T12:10:56.619Z,51.50
2018-12-12T12:13:35.303Z,54.70
2018-12-12T12:16:12.607Z,53.70
2018-12-12T12:18:48.528Z,53.23
2018-12-12T12:21:25.115Z,54.97
2018-12-12T12:24:01.592Z,58.93
2018-12-12T12:26:38.219Z,51.30
2018-12-12T12:29:15.166Z,53.33
2018-12-12T12:31:51.833Z,46.83
2018-12-12T12:34:27.564Z,44.97
2018-12-12T12:37:03.580Z,46.27
2018-12-12T12:39:39.619Z,48.93
2018-12-12T12:42:15.482Z,54.50
2018-12-12T12:44:51.438Z,57.17
2018-12-12T12:47:27.542Z,47.63
2018-12-12T12:50:04.346Z,50.20
2018-12-12T12:52:41.084Z,53.47
2018-12-12T12:55:18.084Z,50.73
2018-12-12T12:57:54.522Z,49.67
2018-12-12T13:00:30.794Z,52.13
2018-12-12T13:03:06.990Z,48.37
2018-12-12T13:05:43.392Z,50.60
2018-12-12T13:08:19.497Z,46.43
2018-12-12T13:10:55.245Z,46.20
2018-12-12T13:13:31.005Z,46.40
2018-12-12T13:16:07.822Z,50.57
2018-12-12T13:18:43.744Z,45.23
2018-12-12T13:21:20.418Z,49.70
2018-12-12T13:23:56.339Z,48.47
2018-12-12T13:26:32.224Z,49.13
2018-12-12T13:29:08.108Z,44.97
2018-12-12T13:31:44.342Z,49.30
2018-12-12T13:34:20.999Z,42.77
2018-12-12T13:36:56.665Z,45.33
2018-12-12T13:39:32.535Z,42.13
2018-12-12T13:42:10.569Z,45.33
2018-12-12T13:44:46.647Z,48.97
2018-12-12T13:47:22.647Z,46.53
2018-12-12T13:49:58.592Z,41.33
2018-12-12T13:52:34.667Z,49.63
2018-12-12T13:55:10.348Z,49.93
2018-12-12T13:57:46.364Z,40.40
2018-12-12T14:00:22.302Z,44.40
2018-12-12T14:02:57.923Z,47.23
2018-12-12T14:05:34.462Z,46.40
2018-12-12T14:08:11.657Z,47.23
2018-12-12T14:10:48.939Z,44.30
2018-12-12T14:13:24.637Z,42.33
2018-12-12T14:16:01.268Z,48.33
2018-12-12T14:18:38.319Z,47.83
2018-12-12T14:21:14.820Z,53.40
2018-12-12T14:23:50.976Z,50.23
2018-12-12T14:26:27.437Z,51.57
2018-12-12T14:29:03.744Z,53.73
2018-12-12T14:31:40.733Z,57.23
2018-12-12T14:34:17.207Z,59.00
2018-12-12T14:36:53.060Z,60.10
2018-12-12T14:39:28.836Z,67.43
2018-12-12T14:42:04.780Z,59.13
2018-12-12T14:44:41.204Z,62.33
2018-12-12T14:47:17.317Z,62.97
2018-12-12T14:49:53.512Z,64.37
2018-12-12T14:52:30.273Z,57.10
2018-12-12T14:55:06.196Z,66.97
2018-12-12T14:57:42.779Z,63.70
2018-12-12T15:00:19.683Z,59.70
2018-12-12T15:02:55.463Z,69.77
2018-12-12T15:05:31.429Z,65.83
2018-12-12T15:08:07.233Z,68.40
2018-12-12T15:10:43.029Z,61.90
2018-12-12T15:13:18.879Z,63.93
2018-12-12T15:15:55.948Z,59.30
2018-12-12T15:18:31.941Z,61.57
2018-12-12T15:21:08.156Z,79.80
2018-12-12T15:23:43.959Z,68.63
2018-12-12T15:26:19.936Z,67.20
2018-12-12T15:28:55.846Z,76.30
2018-12-12T15:31:31.889Z,70.53
2018-12-12T15:34:07.631Z,69.97
2018-12-12T15:36:43.531Z,72.90
2018-12-12T15:39:19.481Z,68.27
2018-12-12T15:41:55.358Z,70.53
2018-12-12T15:44:31.474Z,73.30
2018-12-12T15:47:06.802Z,77.20
2018-12-12T15:49:43.108Z,79.73
2018-12-12T15:52:18.789Z,74.03
2018-12-12T15:54:54.700Z,84.50
2018-12-12T15:57:31.585Z,79.60
2018-12-12T16:00:10.233Z,78.00
2018-12-12T16:02:46.466Z,78.40
2018-12-12T16:05:23.017Z,82.43
2018-12-12T16:08:00.956Z,77.23
2018-12-12T16:10:38.115Z,81.33
2018-12-12T16:13:14.711Z,88.30
2018-12-12T16:15:50.618Z,81.00
2018-12-12T16:18:27.281Z,71.50
2018-12-12T16:21:05.237Z,79.40
2018-12-12T16:23:41.998Z,75.83
2018-12-12T16:26:18.161Z,74.03
2018-12-12T16:28:54.094Z,76.37
2018-12-12T16:31:30.002Z,75.87
2018-12-12T16:34:06.128Z,76.27
2018-12-12T16:36:42.432Z,81.47
2018-12-12T16:39:18.937Z,80.63
2018-12-12T16:41:54.871Z,73.80
2018-12-12T16:44:30.603Z,73.30
2018-12-12T16:47:25.801Z,74.83
2018-12-12T16:50:02.187Z,73.27
2018-12-12T16:52:38.335Z,84.93
2018-12-12T16:55:14.899Z,80.20
2018-12-12T16:57:50.758Z,87.57
2018-12-12T17:00:26.608Z,85.40
2018-12-12T17:03:02.359Z,89.03
2018-12-12T17:05:38.388Z,76.00
2018-12-12T17:08:14.850Z,92.23
2018-12-12T17:10:51.261Z,94.20
2018-12-12T17:13:27.699Z,92.13
2018-12-12T17:16:03.584Z,91.53
2018-12-12T17:18:39.249Z,85.50
2018-12-12T17:21:14.991Z,81.93
2018-12-12T17:23:51.980Z,88.43
2018-12-12T17:26:27.847Z,86.60
2018-12-12T17:29:03.869Z,83.17
2018-12-12T17:31:39.501Z,81.67
2018-12-12T17:34:15.411Z,77.80
2018-12-12T17:36:51.076Z,72.87
2018-12-12T17:39:27.084Z,77.00
2018-12-12T17:42:03.064Z,81.23
2018-12-12T17:44:38.784Z,71.87
2018-12-12T17:47:14.585Z,77.33
2018-12-12T17:49:50.625Z,69.97
2018-12-12T17:52:26.501Z,71.97
2018-12-12T17:55:04.642Z,79.93
2018-12-12T17:57:42.234Z,77.47
2018-12-12T18:00:18.062Z,86.23
2018-12-12T18:02:57.086Z,78.93
2018-12-12T18:05:53.694Z,74.10
2018-12-12T18:08:29.685Z,70.67
2018-12-12T18:11:05.546Z,75.30
2018-12-12T18:13:42.535Z,68.90
2018-12-12T18:16:21.052Z,75.00
2018-12-12T18:18:57.470Z,77.10
2018-12-12T18:21:34.615Z,85.80
2018-12-12T18:24:12.492Z,93.43
2018-12-12T18:26:49.096Z,101.17
2018-12-12T18:29:24.929Z,99.53
2018-12-12T18:32:03.204Z,101.83
2018-12-12T18:34:57.357Z,89.87
2018-12-12T18:37:33.617Z,93.90
2018-12-12T18:40:10.294Z,99.53
2018-12-12T18:42:48.855Z,96.00
2018-12-12T18:45:25.121Z,101.03
2018-12-12T18:48:01.438Z,99.10
2018-12-12T18:50:39.966Z,96.97
2018-12-12T18:53:33.362Z,97.63
2018-12-12T18:56:11.433Z,89.33
2018-12-12T18:58:47.610Z,90.90
2018-12-12T19:01:23.356Z,99.93
2018-12-12T19:03:59.141Z,98.70
2018-12-12T19:06:34.793Z,107.43
2018-12-12T19:09:10.857Z,104.57
2018-12-12T19:11:48.454Z,110.87
2018-12-12T19:14:24.828Z,116.43
2018-12-12T19:17:03.576Z,115.67
2018-12-12T19:19:40.694Z,110.27
2018-12-12T19:22:17.302Z,116.40
2018-12-12T19:24:54.056Z,120.73
2018-12-12T19:27:30.302Z,121.23
2018-12-12T19:30:08.229Z,125.20
2018-12-12T19:32:44.755Z,122.60
2018-12-12T19:35:20.981Z,140.80
2018-12-12T19:37:57.978Z,129.27
2018-12-12T19:40:34.825Z,118.43
2018-12-12T19:43:12.367Z,119.97
2018-12-12T19:45:48.340Z,112.40
2018-12-12T19:48:25.218Z,116.47
2018-12-12T19:51:01.791Z,126.77
2018-12-12T19:53:38.906Z,131.93
2018-12-12T19:56:15.565Z,143.27
2018-12-12T19:58:52.127Z,117.90
2018-12-12T20:01:28.431Z,131.90
2018-12-12T20:04:05.332Z,128.07
2018-12-12T20:06:42.039Z,132.13
2018-12-12T20:09:18.681Z,123.93
2018-12-12T20:11:54.883Z,119.83
2018-12-12T20:14:31.259Z,110.80
2018-12-12T20:17:09.050Z,106.07
2018-12-12T20:19:45.922Z,111.20
2018-12-12T20:22:22.934Z,99.13
2018-12-12T20:24:59.257Z,100.77
2018-12-12T20:27:35.648Z,112.07
2018-12-12T20:30:11.930Z,117.57
2018-12-12T20:32:48.809Z,101.97
2018-12-12T20:35:25.668Z,84.90
2018-12-12T20:38:02.520Z,80.47
2018-12-12T20:40:39.522Z,81.77
2018-12-12T20:43:16.041Z,87.10
2018-12-12T20:45:52.925Z,103.30
2018-12-12T20:48:29.531Z,87.43
2018-12-12T20:51:05.997Z,130.93
2018-12-12T20:53:42.599Z,109.63
2018-12-12T20:56:18.750Z,110.03
2018-12-12T20:58:55.316Z,115.43
2018-12-12T21:01:31.931Z,103.53
2018-12-12T21:04:08.364Z,130.60
2018-12-12T21:06:44.958Z,114.67
2018-12-12T21:09:20.939Z,126.73
2018-12-12T21:11:56.707Z,92.60
2018-12-12T21:14:32.672Z,94.03
2018-12-12T21:17:08.348Z,93.33
2018-12-12T21:19:44.314Z,91.30
2018-12-12T21:22:20.340Z,91.03
2018-12-12T21:24:56.813Z,94.27
2018-12-12T21:27:32.680Z,100.87
2018-12-12T21:30:08.885Z,83.87
2018-12-12T21:32:45.380Z,92.33
2018-12-12T21:35:22.297Z,82.70
2018-12-12T21:37:58.989Z,79.07
2018-12-12T21:40:35.053Z,96.70
2018-12-12T21:43:11.587Z,99.30
2018-12-12T21:45:47.576Z,88.47
2018-12-12T21:48:23.442Z,83.90
2018-12-12T21:50:59.338Z,92.00
2018-12-12T21:53:35.199Z,91.53
2018-12-12T21:56:11.146Z,109.40
2018-12-12T21:58:48.145Z,122.30
2018-12-12T22:01:24.793Z,139.97
2018-12-12T22:04:00.527Z,138.73
2018-12-12T22:06:36.492Z,159.93
2018-12-12T22:09:12.646Z,151.77
2018-12-12T22:11:48.320Z,130.37
2018-12-12T22:14:24.978Z,124.47
2018-12-12T22:17:02.673Z,115.27
2018-12-12T22:19:39.081Z,127.30
2018-12-12T22:22:14.590Z,140.50
2018-12-12T22:24:50.725Z,149.37
2018-12-12T22:27:26.617Z,155.53
2018-12-12T22:30:02.535Z,154.87
2018-12-12T22:32:39.169Z,154.63
2018-12-12T22:35:15.836Z,138.37
2018-12-12T22:37:52.235Z,141.97
2018-12-12T22:40:28.491Z,130.60
2018-12-12T22:43:04.500Z,130.77
2018-12-12T22:45:41.109Z,127.83
2018-12-12T22:48:20.597Z,122.07
2018-12-12T22:50:55.068Z,120.47
2018-12-12T22:53:30.768Z,126.40
2018-12-12T22:56:06.688Z,113.73
2018-12-12T22:58:42.425Z,113.17
2018-12-12T23:01:24.186Z,113.73
2018-12-12T23:04:02.122Z,110.03
2018-12-12T23:06:38.083Z,113.20
2018-12-12T23:09:13.945Z,116.07
2018-12-12T23:11:50.552Z,186.00
2018-12-12T23:14:26.904Z,165.47
2018-12-12T23:17:02.703Z,119.90
2018-12-12T23:19:38.779Z,120.87
2018-12-12T23:22:15.269Z,158.60
2018-12-12T23:24:51.626Z,144.33
2018-12-12T23:27:28.735Z,168.00
2018-12-12T23:30:05.774Z,124.60
2018-12-12T23:32:41.310Z,174.47
2018-12-12T23:35:17.153Z,291.17
2018-12-12T23:37:53.229Z,200.00
2018-12-12T23:40:29.624Z,236.10
2018-12-12T23:43:05.442Z,204.47
2018-12-12T23:45:41.217Z,132.30
2018-12-12T23:48:17.059Z,119.83
2018-12-12T23:50:52.963Z,130.97
2018-12-12T23:53:28.853Z,162.30
2018-12-12T23:56:04.546Z,158.83
2018-12-12T23:58:40.641Z,156.77
